Time;durP1;ratioP1;P1;durP2;ratioP2;P2;SDS_P1;SDS_P2;PMS_P1;PMS_P2;Temp;Humidity;BMP_temperature;BMP_pressure;BME280_temperature;BME280_humidity;BME280_pressure;Samples;Min_cycle;Max_cycle;Signal;HPM_P1;HPM_P2
2024/03/08 00:00:33;;;;;;;30.38;18.45;;;;;;;;;;5072870;28;20280;-69
2024/03/08 00:03:01;;;;;;;25.48;17.20;;;;;;;;;;5072826;28;20611;-69
2024/03/08 00:05:29;;;;;;;30.27;18.50;;;;;;;;;;5072954;28;20193;-69
2024/03/08 00:07:56;;;;;;;27.63;19.08;;;;;;;;;;5072906;28;20530;-70
2024/03/08 00:10:23;;;;;;;28.08;19.08;;;;;;;;;;5072823;28;20549;-70
2024/03/08 00:12:51;;;;;;;27.33;18.13;;;;;;;;;;5073750;28;20593;-69
2024/03/08 00:15:18;;;;;;;28.20;20.25;;;;;;;;;;5076803;28;20219;-70
2024/03/08 00:17:46;;;;;;;28.95;19.00;;;;;;;;;;5076760;28;20615;-69
2024/03/08 00:20:14;;;;;;;24.63;19.00;;;;;;;;;;5076854;28;20558;-69
2024/03/08 00:22:42;;;;;;;29.35;19.92;;;;;;;;;;5076715;28;20308;-70
2024/03/08 00:25:09;;;;;;;26.33;18.65;;;;;;;;;;5076649;28;20186;-69
2024/03/08 00:27:36;;;;;;;21.73;17.88;;;;;;;;;;5076594;28;20193;-69
2024/03/08 00:30:04;;;;;;;28.92;19.08;;;;;;;;;;5076461;28;20197;-69
2024/03/08 00:32:31;;;;;;;28.65;18.50;;;;;;;;;;5076690;28;20204;-70
2024/03/08 00:34:58;;;;;;;23.95;17.42;;;;;;;;;;5076617;28;20538;-69
2024/03/08 00:37:26;;;;;;;25.00;17.83;;;;;;;;;;5076799;28;20280;-69
2024/03/08 00:39:54;;;;;;;22.90;16.77;;;;;;;;;;5076355;28;20312;-69
2024/03/08 00:42:21;;;;;;;22.52;16.67;;;;;;;;;;5076323;28;20308;-70
2024/03/08 00:44:50;;;;;;;23.55;16.48;;;;;;;;;;5076213;28;20186;-69
2024/03/08 00:47:17;;;;;;;28.58;16.77;;;;;;;;;;5076355;28;20196;-69
2024/03/08 00:49:44;;;;;;;24.33;16.40;;;;;;;;;;5076061;28;20280;-69
2024/03/08 00:52:11;;;;;;;29.70;16.95;;;;;;;;;;5076055;28;20193;-69
2024/03/08 00:54:40;;;;;;;27.42;16.88;;;;;;;;;;5076165;28;20276;-69
2024/03/08 00:57:07;;;;;;;25.58;16.90;;;;;;;;;;5076042;28;20205;-69
2024/03/08 00:59:34;;;;;;;23.10;17.23;;;;;;;;;;5076206;28;20243;-69
2024/03/08 01:02:01;;;;;;;26.45;17.42;;;;;;;;;;5076026;28;20196;-69
2024/03/08 01:04:28;;;;;;;25.65;16.67;;;;;;;;;;5075950;28;20220;-70
2024/03/08 01:06:56;;;;;;;27.17;18.23;;;;;;;;;;5075929;28;20190;-69
2024/03/08 01:09:23;;;;;;;29.15;19.52;;;;;;;;;;5075863;28;20294;-70
2024/03/08 01:11:54;;;;;;;37.60;20.52;;;;;;;;;;5075819;28;20300;-69
2024/03/08 01:14:22;;;;;;;33.05;20.48;;;;;;;;;;5075878;28;20185;-69
2024/03/08 01:16:49;;;;;;;29.42;20.20;;;;;;;;;;5075750;28;20189;-69
2024/03/08 01:19:16;;;;;;;26.88;19.17;;;;;;;;;;5075889;28;20706;-70
2024/03/08 01:21:43;;;;;;;27.05;18.98;;;;;;;;;;5075562;28;20186;-69
2024/03/08 01:24:10;;;;;;;29.70;19.85;;;;;;;;;;5074307;28;20219;-69
2024/03/08 01:26:37;;;;;;;27.27;19.05;;;;;;;;;;5075267;28;20745;-69
2024/03/08 01:29:05;;;;;;;29.05;19.77;;;;;;;;;;5075339;28;20661;-69
2024/03/08 01:31:32;;;;;;;27.13;18.60;;;;;;;;;;5075534;28;20280;-70
2024/03/08 01:33:59;;;;;;;23.63;18.67;;;;;;;;;;5075372;28;20228;-70
2024/03/08 01:36:26;;;;;;;25.20;16.73;;;;;;;;;;5075372;28;20667;-69
2024/03/08 01:38:54;;;;;;;27.15;18.67;;;;;;;;;;5075077;28;20254;-69
2024/03/08 01:41:21;;;;;;;25.60;18.38;;;;;;;;;;5075436;28;20613;-69
2024/03/08 01:43:48;;;;;;;30.83;18.90;;;;;;;;;;5075187;28;20221;-69
2024/03/08 01:46:19;;;;;;;25.15;18.30;;;;;;;;;;5075222;28;20189;-69
2024/03/08 01:48:46;;;;;;;27.42;17.95;;;;;;;;;;5075133;28;20193;-69
2024/03/08 01:51:14;;;;;;;27.67;18.63;;;;;;;;;;5074956;28;20615;-69
2024/03/08 01:53:42;;;;;;;30.42;19.17;;;;;;;;;;5075184;28;20189;-69
2024/03/08 01:56:09;;;;;;;25.95;18.60;;;;;;;;;;5074877;28;20197;-69
2024/03/08 01:58:36;;;;;;;26.17;17.90;;;;;;;;;;5075036;28;20197;-70
2024/03/08 02:01:04;;;;;;;24.58;17.80;;;;;;;;;;5074867;28;20192;-69
2024/03/08 02:03:32;;;;;;;26.05;18.25;;;;;;;;;;5074722;28;20221;-69
2024/03/08 02:05:59;;;;;;;25.15;18.13;;;;;;;;;;5074725;28;20588;-69
2024/03/08 02:08:26;;;;;;;26.17;17.75;;;;;;;;;;5074849;28;20189;-69
2024/03/08 02:10:53;;;;;;;28.05;18.00;;;;;;;;;;5074810;28;20279;-69
2024/03/08 02:13:20;;;;;;;27.20;17.67;;;;;;;;;;5074679;28;20670;-69
2024/03/08 02:15:51;;;;;;;31.50;17.70;;;;;;;;;;5074563;28;20280;-70
2024/03/08 02:18:18;;;;;;;26.63;17.65;;;;;;;;;;5074430;28;20221;-69
2024/03/08 02:20:47;;;;;;;22.45;16.70;;;;;;;;;;5074413;28;20280;-69
2024/03/08 02:23:14;;;;;;;24.58;15.88;;;;;;;;;;5074405;28;20220;-68
2024/03/08 02:25:41;;;;;;;24.40;15.70;;;;;;;;;;5074476;28;20189;-69
2024/03/08 02:28:09;;;;;;;25.13;16.15;;;;;;;;;;5074380;28;20200;-69
2024/03/08 02:30:36;;;;;;;23.83;16.42;;;;;;;;;;5074340;28;20280;-70
2024/03/08 02:33:03;;;;;;;23.77;15.38;;;;;;;;;;5074171;28;20200;-69
2024/03/08 02:35:30;;;;;;;27.80;17.40;;;;;;;;;;5074059;28;20201;-69
2024/03/08 02:37:59;;;;;;;26.67;15.65;;;;;;;;;;5074203;28;20189;-69
2024/03/08 02:40:26;;;;;;;22.40;14.77;;;;;;;;;;5074089;28;20231;-69
2024/03/08 02:42:53;;;;;;;25.27;16.05;;;;;;;;;;5073999;28;20216;-70
2024/03/08 02:45:20;;;;;;;31.42;16.20;;;;;;;;;;5073988;28;20200;-68
2024/03/08 02:47:49;;;;;;;21.42;15.07;;;;;;;;;;5073899;28;20242;-69
2024/03/08 02:50:16;;;;;;;27.65;16.40;;;;;;;;;;5074022;28;20196;-69
2024/03/08 02:52:43;;;;;;;25.70;16.42;;;;;;;;;;5073889;28;20189;-69
2024/03/08 02:55:15;;;;;;;23.58;16.30;;;;;;;;;;5073814;28;20275;-69
2024/03/08 02:57:43;;;;;;;21.48;15.00;;;;;;;;;;5073686;28;20235;-69
2024/03/08 03:00:10;;;;;;;27.48;17.67;;;;;;;;;;5073567;28;20211;-69
2024/03/08 03:02:37;;;;;;;27.40;16.55;;;;;;;;;;5073794;28;20193;-69
2024/03/08 03:05:05;;;;;;;20.00;15.55;;;;;;;;;;5073599;28;20221;-69
2024/03/08 03:07:33;;;;;;;25.10;15.75;;;;;;;;;;5073618;28;20289;-69
2024/03/08 03:10:00;;;;;;;21.13;14.85;;;;;;;;;;5073403;28;20194;-69
2024/03/08 03:12:28;;;;;;;25.40;15.00;;;;;;;;;;5073422;28;20196;-69
2024/03/08 03:14:56;;;;;;;23.77;15.27;;;;;;;;;;5073762;28;20189;-69
2024/03/08 03:17:23;;;;;;;22.92;15.52;;;;;;;;;;5073603;28;20228;-69
2024/03/08 03:19:50;;;;;;;30.13;16.92;;;;;;;;;;5073430;28;20189;-69
2024/03/08 03:22:18;;;;;;;24.08;15.60;;;;;;;;;;5073334;28;20197;-69
2024/03/08 03:24:46;;;;;;;26.33;17.10;;;;;;;;;;5073200;28;20213;-69
2024/03/08 03:27:13;;;;;;;24.92;15.88;;;;;;;;;;5073177;28;20529;-69
2024/03/08 03:29:42;;;;;;;22.33;15.60;;;;;;;;;;5073706;28;20201;-69
2024/03/08 03:32:09;;;;;;;24.95;15.75;;;;;;;;;;5073293;28;20198;-69
2024/03/08 03:34:36;;;;;;;23.25;15.38;;;;;;;;;;5073188;28;20280;-71
2024/03/08 03:37:03;;;;;;;22.98;16.10;;;;;;;;;;5073127;28;20189;-69
2024/03/08 03:39:31;;;;;;;22.85;15.15;;;;;;;;;;5073116;28;20300;-68
2024/03/08 03:41:58;;;;;;;24.05;15.35;;;;;;;;;;5073009;28;20197;-69
2024/03/08 03:44:25;;;;;;;26.45;16.23;;;;;;;;;;5073361;28;20220;-69
2024/03/08 03:46:54;;;;;;;23.70;15.52;;;;;;;;;;5072850;28;20240;-69
2024/03/08 03:49:21;;;;;;;26.30;14.10;;;;;;;;;;5072646;28;20276;-69
2024/03/08 03:51:48;;;;;;;23.98;15.20;;;;;;;;;;5072976;28;20552;-69
2024/03/08 03:54:15;;;;;;;24.10;16.75;;;;;;;;;;5072910;28;20189;-69
2024/03/08 03:56:42;;;;;;;20.75;14.98;;;;;;;;;;5073072;28;20200;-69
2024/03/08 03:59:09;;;;;;;26.00;17.58;;;;;;;;;;5073012;28;20631;-69
2024/03/08 04:01:36;;;;;;;24.02;16.52;;;;;;;;;;5072970;28;20280;-69
2024/03/08 04:04:05;;;;;;;28.38;16.65;;;;;;;;;;5072828;28;20235;-69
2024/03/08 04:06:32;;;;;;;25.98;15.38;;;;;;;;;;5072876;28;20649;-70
2024/03/08 04:08:58;;;;;;;25.45;16.17;;;;;;;;;;5072658;28;20284;-69
2024/03/08 04:11:25;;;;;;;26.83;15.43;;;;;;;;;;5072929;28;20280;-69
2024/03/08 04:13:53;;;;;;;22.83;15.30;;;;;;;;;;5072822;28;20649;-69
2024/03/08 04:16:20;;;;;;;24.25;15.85;;;;;;;;;;5072738;28;20549;-69
2024/03/08 04:18:47;;;;;;;23.42;15.35;;;;;;;;;;5072718;28;20196;-69
2024/03/08 04:21:16;;;;;;;24.95;16.70;;;;;;;;;;5072518;28;20194;-69
2024/03/08 04:23:45;;;;;;;26.52;16.63;;;;;;;;;;5072758;28;20307;-69
2024/03/08 04:26:12;;;;;;;22.42;14.95;;;;;;;;;;5072701;28;20189;-69
2024/03/08 04:28:39;;;;;;;23.80;16.52;;;;;;;;;;5072688;28;20276;-69
2024/03/08 04:31:06;;;;;;;25.05;15.57;;;;;;;;;;5072583;28;20274;-69
2024/03/08 04:33:35;;;;;;;22.65;14.80;;;;;;;;;;5072608;28;20283;-69
2024/03/08 04:36:04;;;;;;;23.30;14.88;;;;;;;;;;5072657;28;20242;-69
2024/03/08 04:38:32;;;;;;;20.30;14.98;;;;;;;;;;5072666;28;20200;-69
2024/03/08 04:40:59;;;;;;;19.05;14.23;;;;;;;;;;5072237;28;20221;-69
2024/03/08 04:43:26;;;;;;;22.65;14.65;;;;;;;;;;5072408;28;20189;-69
2024/03/08 04:45:53;;;;;;;26.48;16.95;;;;;;;;;;5072418;28;20190;-69
2024/03/08 04:48:21;;;;;;;25.08;15.50;;;;;;;;;;5072263;28;20189;-69
2024/03/08 04:50:48;;;;;;;24.70;14.30;;;;;;;;;;5072599;28;20190;-69
2024/03/08 04:53:17;;;;;;;21.33;14.32;;;;;;;;;;5072495;28;20285;-69
2024/03/08 04:55:45;;;;;;;23.77;15.65;;;;;;;;;;5072451;28;20193;-69
2024/03/08 04:58:12;;;;;;;24.20;14.70;;;;;;;;;;5072387;28;20275;-69
2024/03/08 05:00:39;;;;;;;21.55;14.45;;;;;;;;;;5075959;28;20277;-69
2024/03/08 05:03:06;;;;;;;23.95;16.33;;;;;;;;;;5075900;28;20276;-69
2024/03/08 05:05:33;;;;;;;26.33;14.82;;;;;;;;;;5076001;28;20227;-69
2024/03/08 05:08:01;;;;;;;26.35;15.25;;;;;;;;;;5075979;28;20284;-69
2024/03/08 05:10:28;;;;;;;30.52;19.98;;;;;;;;;;5075927;28;20186;-69
2024/03/08 05:12:56;;;;;;;28.88;18.98;;;;;;;;;;5075727;28;20189;-69
2024/03/08 05:15:23;;;;;;;30.90;18.08;;;;;;;;;;5075683;28;20280;-69
2024/03/08 05:17:50;;;;;;;28.25;19.83;;;;;;;;;;5075624;28;20280;-69
2024/03/08 05:20:17;;;;;;;28.75;19.92;;;;;;;;;;5075812;28;20280;-69
2024/03/08 05:22:46;;;;;;;33.22;23.80;;;;;;;;;;5075675;28;20185;-69
2024/03/08 05:25:14;;;;;;;34.67;22.30;;;;;;;;;;5075539;28;20220;-69
2024/03/08 05:27:41;;;;;;;32.03;20.23;;;;;;;;;;5075505;28;20276;-69
2024/03/08 05:30:14;;;;;;;31.23;20.45;;;;;;;;;;5075374;28;20276;-69
2024/03/08 05:32:44;;;;;;;30.98;18.67;;;;;;;;;;5075663;28;20557;-69
2024/03/08 05:35:12;;;;;;;27.85;17.95;;;;;;;;;;5075438;28;20190;-69
2024/03/08 05:37:39;;;;;;;28.83;18.13;;;;;;;;;;5075576;28;20553;-69
2024/03/08 05:40:09;;;;;;;28.70;18.70;;;;;;;;;;5075111;28;20225;-69
2024/03/08 05:42:37;;;;;;;28.35;17.23;;;;;;;;;;5075130;28;20306;-69
2024/03/08 05:45:04;;;;;;;28.38;18.17;;;;;;;;;;5074999;28;20224;-69
2024/03/08 05:47:32;;;;;;;25.90;16.58;;;;;;;;;;5075104;28;20189;-69
2024/03/08 05:49:59;;;;;;;30.67;17.90;;;;;;;;;;5075311;28;20201;-69
2024/03/08 05:52:26;;;;;;;34.92;24.85;;;;;;;;;;5075063;28;20223;-69
2024/03/08 05:54:53;;;;;;;38.80;24.02;;;;;;;;;;5074913;28;20199;-69
2024/03/08 05:57:22;;;;;;;27.52;17.92;;;;;;;;;;5074847;28;20225;-69
2024/03/08 05:59:49;;;;;;;27.55;18.40;;;;;;;;;;5075132;28;20186;-69
2024/03/08 06:02:19;;;;;;;30.20;18.05;;;;;;;;;;5075167;28;20280;-69
2024/03/08 06:04:47;;;;;;;27.65;17.42;;;;;;;;;;5074551;28;20213;-70
2024/03/08 06:07:14;;;;;;;30.52;17.83;;;;;;;;;;5074637;28;20552;-69
2024/03/08 06:09:45;;;;;;;27.00;16.55;;;;;;;;;;5074525;28;20185;-69
2024/03/08 06:12:12;;;;;;;30.85;18.75;;;;;;;;;;5074248;28;20283;-69
2024/03/08 06:14:39;;;;;;;28.60;18.98;;;;;;;;;;5074705;28;20197;-69
2024/03/08 06:17:07;;;;;;;31.80;20.05;;;;;;;;;;5074581;28;20200;-69
2024/03/08 06:19:35;;;;;;;25.88;17.92;;;;;;;;;;5074534;28;20189;-69
2024/03/08 06:22:05;;;;;;;26.75;17.02;;;;;;;;;;5074365;28;20185;-68
2024/03/08 06:24:32;;;;;;;31.80;19.05;;;;;;;;;;5074529;28;20224;-69
2024/03/08 06:26:59;;;;;;;27.83;18.00;;;;;;;;;;5074461;28;20193;-68
2024/03/08 06:29:26;;;;;;;27.85;17.90;;;;;;;;;;5074446;28;20196;-69
2024/03/08 06:31:53;;;;;;;25.55;17.48;;;;;;;;;;5074341;28;20194;-69
2024/03/08 06:34:20;;;;;;;28.75;19.30;;;;;;;;;;5074208;28;20284;-69
2024/03/08 06:36:47;;;;;;;29.45;19.13;;;;;;;;;;5074302;28;20189;-69
2024/03/08 06:39:17;;;;;;;28.55;17.70;;;;;;;;;;5074158;28;20260;-69
2024/03/08 06:41:44;;;;;;;25.08;17.45;;;;;;;;;;5074327;28;20189;-69
2024/03/08 06:44:11;;;;;;;30.48;19.08;;;;;;;;;;5074255;28;20205;-69
2024/03/08 06:46:39;;;;;;;36.42;21.20;;;;;;;;;;5074313;28;20280;-69
2024/03/08 06:49:07;;;;;;;31.05;19.98;;;;;;;;;;5073903;28;20189;-69
2024/03/08 06:51:34;;;;;;;34.58;21.05;;;;;;;;;;5074024;28;20189;-69
2024/03/08 06:54:01;;;;;;;36.17;21.40;;;;;;;;;;5073957;28;20623;-69
2024/03/08 06:56:30;;;;;;;35.60;25.00;;;;;;;;;;5073859;28;20196;-69
2024/03/08 06:58:57;;;;;;;39.20;24.17;;;;;;;;;;5073919;28;20196;-69
2024/03/08 07:01:24;;;;;;;38.58;25.77;;;;;;;;;;5073598;28;20247;-69
2024/03/08 07:03:52;;;;;;;33.50;23.05;;;;;;;;;;5073537;28;20193;-70
2024/03/08 07:06:20;;;;;;;31.80;22.35;;;;;;;;;;5073571;28;20283;-69
2024/03/08 07:08:48;;;;;;;30.23;19.95;;;;;;;;;;5073606;28;20185;-69
2024/03/08 07:11:18;;;;;;;33.03;21.50;;;;;;;;;;5073554;28;20529;-69
2024/03/08 07:13:46;;;;;;;38.03;22.55;;;;;;;;;;5073475;28;20220;-69
2024/03/08 07:16:13;;;;;;;31.42;21.63;;;;;;;;;;5073378;28;20313;-68
2024/03/08 07:18:43;;;;;;;38.50;21.50;;;;;;;;;;5073271;28;20560;-69
2024/03/08 07:21:10;;;;;;;37.42;22.42;;;;;;;;;;5073271;28;20221;-69
2024/03/08 07:24:06;;;;;;;34.30;21.48;;;;;;;;;;5072511;28;20193;-69
2024/03/08 07:26:33;;;;;;;34.00;21.08;;;;;;;;;;5073488;28;20627;-69
2024/03/08 07:29:01;;;;;;;38.22;20.63;;;;;;;;;;5073368;28;20197;-69
2024/03/08 07:31:44;;;;;;;29.52;21.30;;;;;;;;;;5073409;28;20224;-69
2024/03/08 07:34:11;;;;;;;31.45;19.90;;;;;;;;;;5073535;28;20279;-69
2024/03/08 07:36:38;;;;;;;32.50;20.80;;;;;;;;;;5073094;28;20654;-69
2024/03/08 07:39:05;;;;;;;32.78;21.60;;;;;;;;;;5073045;28;20287;-68
2024/03/08 07:41:36;;;;;;;36.50;20.40;;;;;;;;;;5073088;28;20193;-69
2024/03/08 07:44:04;;;;;;;32.42;21.25;;;;;;;;;;5073237;28;20610;-69
2024/03/08 07:46:31;;;;;;;35.40;20.92;;;;;;;;;;5073011;28;20312;-69
2024/03/08 07:48:58;;;;;;;31.20;20.20;;;;;;;;;;5072954;28;20195;-69
2024/03/08 07:51:25;;;;;;;30.13;20.75;;;;;;;;;;5072959;28;20193;-69
2024/03/08 07:53:52;;;;;;;34.20;20.67;;;;;;;;;;5072850;28;20588;-69
2024/03/08 07:56:21;;;;;;;32.28;21.00;;;;;;;;;;5073005;28;20200;-69
2024/03/08 07:58:48;;;;;;;30.67;19.83;;;;;;;;;;5072657;28;20193;-69
2024/03/08 08:01:18;;;;;;;30.25;20.70;;;;;;;;;;5072907;28;20193;-69
2024/03/08 08:03:45;;;;;;;29.42;18.98;;;;;;;;;;5072887;28;20184;-69
2024/03/08 08:06:15;;;;;;;34.42;20.30;;;;;;;;;;5072692;28;20224;-69
2024/03/08 08:08:42;;;;;;;34.50;20.83;;;;;;;;;;5072602;28;20237;-69
2024/03/08 08:11:11;;;;;;;29.08;19.65;;;;;;;;;;5072835;28;20193;-68
2024/03/08 08:13:38;;;;;;;33.78;21.65;;;;;;;;;;5072727;28;20203;-69
2024/03/08 08:16:06;;;;;;;29.38;20.05;;;;;;;;;;5072851;28;20775;-69
2024/03/08 08:18:35;;;;;;;35.13;22.10;;;;;;;;;;5072881;28;20189;-69
2024/03/08 08:21:02;;;;;;;37.90;20.45;;;;;;;;;;5072492;28;20189;-69
2024/03/08 08:23:30;;;;;;;30.67;19.65;;;;;;;;;;5072731;28;20229;-69
2024/03/08 08:25:57;;;;;;;27.75;18.85;;;;;;;;;;5072571;28;20213;-69
2024/03/08 08:28:24;;;;;;;28.90;18.77;;;;;;;;;;5072525;28;20195;-69
2024/03/08 08:30:52;;;;;;;28.55;18.55;;;;;;;;;;5072728;28;20189;-69
2024/03/08 08:33:19;;;;;;;30.42;18.75;;;;;;;;;;5072507;28;20185;-69
2024/03/08 08:35:47;;;;;;;31.88;19.38;;;;;;;;;;5076587;28;20637;-69
2024/03/08 08:38:15;;;;;;;31.65;17.88;;;;;;;;;;5076536;28;20189;-68
2024/03/08 08:40:42;;;;;;;25.50;18.38;;;;;;;;;;5076492;28;20244;-69
2024/03/08 08:43:08;;;;;;;30.05;18.90;;;;;;;;;;5076188;28;20648;-69
2024/03/08 08:45:36;;;;;;;29.73;18.90;;;;;;;;;;5076245;28;20304;-69
2024/03/08 08:48:05;;;;;;;35.20;20.88;;;;;;;;;;5076087;28;20190;-69
2024/03/08 08:50:32;;;;;;;29.52;19.10;;;;;;;;;;5076474;28;20600;-69
2024/03/08 08:53:00;;;;;;;27.38;18.65;;;;;;;;;;5076510;28;20280;-69
2024/03/08 08:55:27;;;;;;;32.60;20.92;;;;;;;;;;5076105;28;20193;-69
2024/03/08 08:57:55;;;;;;;26.35;18.15;;;;;;;;;;5076048;28;20717;-69
2024/03/08 09:00:26;;;;;;;24.40;18.27;;;;;;;;;;5075848;28;20721;-69
2024/03/08 09:02:55;;;;;;;25.70;18.95;;;;;;;;;;5076418;28;20189;-69
2024/03/08 09:05:24;;;;;;;30.58;18.75;;;;;;;;;;5075870;28;20250;-69
2024/03/08 09:07:51;;;;;;;25.20;18.35;;;;;;;;;;5075919;28;20189;-69
2024/03/08 09:10:19;;;;;;;24.25;17.40;;;;;;;;;;5075795;28;20193;-69
2024/03/08 09:12:47;;;;;;;29.40;18.55;;;;;;;;;;5075700;28;20221;-69
2024/03/08 09:15:14;;;;;;;23.23;16.83;;;;;;;;;;5075544;28;20207;-69
2024/03/08 09:17:41;;;;;;;29.20;17.83;;;;;;;;;;5075799;28;20276;-69
2024/03/08 09:20:08;;;;;;;27.80;18.15;;;;;;;;;;5075731;28;20192;-69
2024/03/08 09:22:35;;;;;;;23.38;16.90;;;;;;;;;;5075740;28;20193;-69
2024/03/08 09:25:05;;;;;;;28.05;17.33;;;;;;;;;;5075580;28;20613;-69
2024/03/08 09:27:33;;;;;;;23.88;16.67;;;;;;;;;;5075652;28;20667;-68
2024/03/08 09:30:01;;;;;;;21.98;15.95;;;;;;;;;;5075954;28;20193;-69
2024/03/08 09:32:28;;;;;;;22.60;15.32;;;;;;;;;;5075583;28;20185;-69
2024/03/08 09:34:55;;;;;;;24.08;15.68;;;;;;;;;;5075389;28;20279;-69
2024/03/08 09:37:23;;;;;;;23.15;15.30;;;;;;;;;;5075581;28;20197;-69
2024/03/08 09:39:50;;;;;;;21.10;15.10;;;;;;;;;;5075201;28;20562;-69
2024/03/08 09:42:17;;;;;;;22.88;14.48;;;;;;;;;;5075129;28;20704;-69
2024/03/08 09:44:49;;;;;;;28.73;16.10;;;;;;;;;;5074910;28;20281;-69
2024/03/08 09:47:16;;;;;;;24.20;15.10;;;;;;;;;;5074464;28;20673;-69
2024/03/08 09:49:44;;;;;;;18.73;14.30;;;;;;;;;;5075162;28;20195;-69
2024/03/08 09:52:12;;;;;;;21.48;13.18;;;;;;;;;;5074979;28;20475;-69
2024/03/08 09:54:39;;;;;;;19.75;13.18;;;;;;;;;;5075216;28;20193;-69
2024/03/08 09:57:08;;;;;;;18.10;12.10;;;;;;;;;;5075031;28;20247;-69
2024/03/08 09:59:44;;;;;;;21.92;12.57;;;;;;;;;;5074787;28;20945;-69
2024/03/08 10:02:15;;;;;;;18.83;12.35;;;;;;;;;;5074872;28;20555;-69
2024/03/08 10:04:43;;;;;;;19.38;13.32;;;;;;;;;;5074971;28;20280;-69
2024/03/08 10:07:09;;;;;;;23.13;13.85;;;;;;;;;;5074486;28;20695;-69
2024/03/08 10:09:36;;;;;;;21.67;13.80;;;;;;;;;;5074833;28;20231;-69
2024/03/08 10:12:05;;;;;;;19.77;14.30;;;;;;;;;;5074466;28;20277;-69
2024/03/08 10:14:32;;;;;;;21.95;15.00;;;;;;;;;;5074592;28;20531;-69
2024/03/08 10:16:59;;;;;;;22.40;14.67;;;;;;;;;;5074606;28;20200;-69
2024/03/08 10:19:29;;;;;;;21.37;14.50;;;;;;;;;;5074759;28;20447;-69
2024/03/08 10:21:58;;;;;;;21.40;13.60;;;;;;;;;;5074415;28;20974;-69
2024/03/08 10:24:25;;;;;;;23.58;14.60;;;;;;;;;;5074610;28;20447;-69
2024/03/08 10:26:55;;;;;;;22.47;14.80;;;;;;;;;;5074342;28;20217;-69
2024/03/08 10:29:22;;;;;;;21.53;16.13;;;;;;;;;;5074420;28;20806;-69
2024/03/08 10:31:50;;;;;;;23.77;14.03;;;;;;;;;;5074328;28;20530;-69
2024/03/08 10:34:16;;;;;;;19.33;14.47;;;;;;;;;;5074137;28;20443;-69
2024/03/08 10:36:46;;;;;;;18.30;14.00;;;;;;;;;;5074378;28;20531;-69
2024/03/08 10:39:16;;;;;;;22.27;14.53;;;;;;;;;;5074284;28;20478;-69
2024/03/08 10:41:46;;;;;;;21.53;15.43;;;;;;;;;;5074134;28;20539;-69
2024/03/08 10:44:19;;;;;;;22.13;14.63;;;;;;;;;;5073985;28;20435;-69
2024/03/08 10:46:54;;;;;;;18.03;13.00;;;;;;;;;;5073812;28;20528;-69
2024/03/08 10:49:26;;;;;;;20.80;13.20;;;;;;;;;;5074025;28;20471;-69
2024/03/08 10:51:54;;;;;;;25.13;13.80;;;;;;;;;;5073951;28;20497;-69
2024/03/08 10:54:22;;;;;;;20.73;13.00;;;;;;;;;;5073771;28;20534;-69
2024/03/08 10:56:50;;;;;;;18.47;12.43;;;;;;;;;;5073502;28;20450;-69
2024/03/08 10:59:17;;;;;;;19.03;13.50;;;;;;;;;;5073523;28;20444;-69
2024/03/08 11:01:44;;;;;;;22.47;14.80;;;;;;;;;;5073585;28;20967;-69
2024/03/08 11:04:11;;;;;;;19.17;14.13;;;;;;;;;;5073755;28;20939;-69
2024/03/08 11:06:45;;;;;;;19.67;14.20;;;;;;;;;;5073430;28;20914;-69
2024/03/08 11:09:29;;;;;;;18.13;13.07;;;;;;;;;;5073450;28;20497;-69
2024/03/08 11:12:11;;;;;;;17.20;12.07;;;;;;;;;;5073411;28;20454;-69
2024/03/08 11:14:45;;;;;;;16.97;12.00;;;;;;;;;;5073248;28;20451;-69
2024/03/08 11:17:11;;;;;;;16.53;11.20;;;;;;;;;;5073477;28;20448;-69
2024/03/08 11:19:40;;;;;;;19.80;12.00;;;;;;;;;;5073399;28;20435;-69
2024/03/08 11:22:10;;;;;;;19.40;13.57;;;;;;;;;;5073320;28;20450;-69
2024/03/08 11:24:41;;;;;;;14.77;11.93;;;;;;;;;;5073362;28;20501;-69
2024/03/08 11:27:09;;;;;;;15.80;11.73;;;;;;;;;;5073268;28;20572;-69
2024/03/08 11:29:40;;;;;;;16.67;12.20;;;;;;;;;;5073193;28;20448;-69
2024/03/08 11:32:09;;;;;;;14.70;11.33;;;;;;;;;;5073014;28;20457;-69
2024/03/08 11:34:36;;;;;;;17.17;11.90;;;;;;;;;;5073001;28;20440;-69
2024/03/08 11:37:05;;;;;;;14.43;10.90;;;;;;;;;;5073029;28;20483;-69
2024/03/08 11:39:32;;;;;;;14.50;10.70;;;;;;;;;;5073070;28;20471;-69
2024/03/08 11:42:00;;;;;;;13.80;9.50;;;;;;;;;;5073129;28;20525;-69
2024/03/08 11:44:28;;;;;;;12.07;10.30;;;;;;;;;;5072846;28;20958;-69
2024/03/08 11:46:55;;;;;;;14.47;11.17;;;;;;;;;;5072893;28;20541;-69
2024/03/08 11:49:23;;;;;;;13.50;10.73;;;;;;;;;;5072776;28;20531;-69
2024/03/08 11:51:53;;;;;;;13.70;10.50;;;;;;;;;;5073018;28;20540;-69
2024/03/08 11:54:20;;;;;;;17.90;10.50;;;;;;;;;;5072980;28;20444;-69
2024/03/08 11:56:47;;;;;;;13.57;10.17;;;;;;;;;;5072742;28;20448;-69
2024/03/08 11:59:17;;;;;;;12.87;10.23;;;;;;;;;;5073035;28;20439;-69
2024/03/08 12:01:44;;;;;;;12.80;9.63;;;;;;;;;;5072581;28;20448;-69
2024/03/08 12:04:13;;;;;;;14.30;9.80;;;;;;;;;;5072921;28;20451;-69
2024/03/08 12:06:41;;;;;;;15.13;10.03;;;;;;;;;;5072742;28;20479;-69
2024/03/08 12:09:12;;;;;;;15.20;8.80;;;;;;;;;;5076172;28;20447;-69
2024/03/08 12:11:40;;;;;;;13.93;9.57;;;;;;;;;;5079549;28;20490;-69
2024/03/08 12:14:08;;;;;;;14.17;9.70;;;;;;;;;;5079366;28;20878;-69
2024/03/08 12:16:37;;;;;;;13.80;9.47;;;;;;;;;;5079146;28;20443;-69
2024/03/08 12:19:04;;;;;;;15.20;8.80;;;;;;;;;;5079224;28;20454;-69
2024/03/08 12:21:34;;;;;;;18.37;12.67;;;;;;;;;;5079344;28;20458;-70
2024/03/08 12:24:05;;;;;;;13.93;11.13;;;;;;;;;;5079188;28;20447;-70
2024/03/08 12:26:33;;;;;;;14.77;10.33;;;;;;;;;;5079033;28;20546;-70
2024/03/08 12:29:16;;;;;;;15.93;11.40;;;;;;;;;;5079082;28;21017;-70
2024/03/08 12:31:45;;;;;;;16.03;12.90;;;;;;;;;;5079155;28;20450;-69
2024/03/08 12:34:13;;;;;;;18.87;13.73;;;;;;;;;;5079279;28;20534;-69
2024/03/08 12:36:47;;;;;;;16.20;12.70;;;;;;;;;;5079207;28;20446;-70
2024/03/08 12:39:15;;;;;;;18.33;12.77;;;;;;;;;;5079004;28;20460;-69
2024/03/08 12:41:43;;;;;;;19.27;13.10;;;;;;;;;;5079242;28;20475;-70
2024/03/08 12:44:11;;;;;;;19.43;12.50;;;;;;;;;;5079209;28;20478;-69
2024/03/08 12:46:40;;;;;;;17.80;13.10;;;;;;;;;;5078867;28;20826;-69
2024/03/08 12:49:08;;;;;;;14.60;10.73;;;;;;;;;;5078914;28;20447;-69
2024/03/08 12:51:35;;;;;;;13.93;10.17;;;;;;;;;;5079182;28;20542;-68
2024/03/08 12:54:02;;;;;;;15.03;11.03;;;;;;;;;;5079193;28;20538;-69
2024/03/08 12:56:33;;;;;;;17.30;10.97;;;;;;;;;;5079336;28;20537;-69
2024/03/08 12:59:00;;;;;;;17.10;12.23;;;;;;;;;;5078996;28;20538;-70
2024/03/08 13:01:27;;;;;;;15.53;11.93;;;;;;;;;;5078877;28;20486;-70
2024/03/08 13:03:55;;;;;;;14.77;12.20;;;;;;;;;;5078924;28;20447;-70
2024/03/08 13:06:24;;;;;;;15.60;11.33;;;;;;;;;;5078734;28;20510;-70
2024/03/08 13:08:52;;;;;;;17.93;12.27;;;;;;;;;;5078975;28;20451;-70
2024/03/08 13:11:19;;;;;;;16.23;11.77;;;;;;;;;;5078872;28;20455;-69
2024/03/08 13:13:46;;;;;;;15.63;12.40;;;;;;;;;;5078946;28;20443;-70
2024/03/08 13:16:14;;;;;;;15.57;10.47;;;;;;;;;;5078888;28;20534;-70
2024/03/08 13:18:42;;;;;;;14.20;12.53;;;;;;;;;;5078757;28;20489;-70
2024/03/08 13:21:10;;;;;;;16.67;11.37;;;;;;;;;;5076384;28;20534;-70
2024/03/08 13:23:40;;;;;;;15.00;11.83;;;;;;;;;;5075706;28;20493;-70
2024/03/08 13:26:07;;;;;;;13.73;11.33;;;;;;;;;;5075450;28;21069;-70
2024/03/08 13:28:36;;;;;;;17.20;11.27;;;;;;;;;;5075353;28;20455;-70
2024/03/08 13:31:06;;;;;;;13.20;10.60;;;;;;;;;;5075420;28;20534;-71
2024/03/08 13:33:35;;;;;;;16.50;12.50;;;;;;;;;;5075283;28;20447;-70
2024/03/08 13:36:03;;;;;;;17.90;10.30;;;;;;;;;;5075628;28;20439;-69
2024/03/08 13:38:31;;;;;;;15.17;10.43;;;;;;;;;;5075116;28;20543;-70
2024/03/08 13:41:00;;;;;;;12.30;10.27;;;;;;;;;;5075053;28;20474;-70
2024/03/08 13:43:28;;;;;;;12.60;9.07;;;;;;;;;;5075199;28;20957;-70
2024/03/08 13:45:55;;;;;;;13.90;10.60;;;;;;;;;;5075046;28;20443;-69
2024/03/08 13:48:22;;;;;;;17.43;11.57;;;;;;;;;;5075157;28;20566;-70
2024/03/08 13:50:51;;;;;;;13.80;10.63;;;;;;;;;;5075023;28;20497;-70
2024/03/08 13:53:18;;;;;;;15.67;10.80;;;;;;;;;;5075064;28;20935;-70
2024/03/08 13:55:45;;;;;;;17.00;10.63;;;;;;;;;;5074949;28;20538;-70
2024/03/08 13:58:13;;;;;;;22.00;12.07;;;;;;;;;;5074889;28;20451;-70
2024/03/08 14:00:43;;;;;;;13.60;10.87;;;;;;;;;;5074759;28;20443;-70
2024/03/08 14:03:12;;;;;;;13.33;10.57;;;;;;;;;;5074740;28;20939;-70
2024/03/08 14:05:39;;;;;;;12.23;9.67;;;;;;;;;;5074831;28;20440;-70
2024/03/08 14:08:07;;;;;;;12.13;9.77;;;;;;;;;;5074746;28;20478;-70
2024/03/08 14:10:34;;;;;;;17.37;11.23;;;;;;;;;;5074623;28;20450;-70
2024/03/08 14:13:02;;;;;;;13.27;10.50;;;;;;;;;;5074559;28;20479;-71
2024/03/08 14:15:30;;;;;;;14.03;10.00;;;;;;;;;;5074735;28;20813;-70
2024/03/08 14:17:58;;;;;;;13.60;10.17;;;;;;;;;;5074614;28;20444;-70
2024/03/08 14:20:25;;;;;;;16.13;11.97;;;;;;;;;;5074541;28;20471;-70
2024/03/08 14:22:52;;;;;;;11.27;9.03;;;;;;;;;;5074442;28;20444;-70